Time,TemperatureF,DewpointF,PressureIn,WindDirection,WindDirectionDegrees,WindSpeedMPH,WindSpeedGustMPH,Humidity,HourlyPrecipIn,Conditions,Clouds,dailyrainin,SolarRadiationWatts/m^2,SoftwareType,DateUTC
2013-10-17 00:02:00,55.9,48.8,30.03,NNW,333,4.2,6.9,77,0.00,RA,,0.00,0.0,WeatherDisplay:10.37,2013-10-17 05:02:00,
2013-10-17 00:07:00,55.9,48.4,30.02,NNW,331,0.0,0.0,76,0.00,RA,,0.00,0.0,WeatherDisplay:10.37,2013-10-17 05:07:00,
2013-10-17 00:12:00,55.9,48.4,30.02,NNW,331,0.0,0.0,76,0.00,OVC,,0.00,0.0,WeatherDisplay:10.37,2013-10-17 05:12:00,
2013-10-17 00:17:00,55.8,49.4,30.01,NNW,331,0.0,0.0,79,0.00,OVC,,0.00,0.0,WeatherDisplay:10.37,2013-10-17 05:17:00,
2013-10-17 00:22:00,55.6,48.5,30.01,NNW,331,0.0,2.3,77,0.00,OVC,,0.00,0.0,WeatherDisplay:10.37,2013-10-17 05:22:00,
2013-10-17 00:27:00,55.5,48.1,30.01,NNW,348,3.3,5.8,76,0.00,OVC,,0.00,0.0,WeatherDisplay:10.37,2013-10-17 05:27:00,
2013-10-17 00:32:00,55.3,47.5,30.02,North,355,0.0,1.2,75,0.00,OVC,,0.00,0.0,WeatherDisplay:10.37,2013-10-17 05:32:00,
2013-10-17 00:37:00,55.0,47.9,30.01,ESE,117,0.0,1.2,77,0.00,OVC,,0.00,0.0,WeatherDisplay:10.37,2013-10-17 05:37:00,
2013-10-17 00:42:00,54.7,48.0,30.01,ESE,117,0.7,1.2,78,0.00,OVC,,0.00,0.0,WeatherDisplay:10.37,2013-10-17 05:42:00,
2013-10-17 00:47:00,54.4,48.0,30.01,NE,49,0.0,2.3,79,0.00,OVC,,0.00,0.0,WeatherDisplay:10.37,2013-10-17 05:47:00,
2013-10-17 00:52:00,54.4,47.7,30.01,North,9,0.6,2.6,78,0.00,OVC,,0.00,0.0,WeatherDisplay:10.37,2013-10-17 05:52:00,
2013-10-17 00:57:00,54.1,48.7,30.01,North,9,0.0,0.0,82,0.00,OVC,,0.00,0.0,WeatherDisplay:10.37,2013-10-17 05:57:00,
2013-10-17 01:02:00,53.8,48.8,30.02,North,9,0.0,0.0,83,0.00,BKN,,0.00,0.0,WeatherDisplay:10.37,2013-10-17 06:02:00,
2013-10-17 01:07:00,53.7,48.7,30.02,North,9,0.0,0.0,83,0.00,BKN,,0.00,0.0,WeatherDisplay:10.37,2013-10-17 06:07:00,
2013-10-17 01:12:00,53.7,48.7,30.02,North,9,0.0,0.0,83,0.00,BKN,,0.00,0.0,WeatherDisplay:10.37,2013-10-17 06:12:00,
2013-10-17 01:17:00,53.7,49.0,30.01,North,9,0.0,0.0,84,0.00,RA,,0.01,0.0,WeatherDisplay:10.37,2013-10-17 06:17:00,
2013-10-17 01:22:00,53.5,48.5,30.02,North,9,0.0,1.0,83,0.00,RA,,0.01,0.0,WeatherDisplay:10.37,2013-10-17 06:22:00,
2013-10-17 01:27:00,53.2,49.2,30.01,North,9,0.0,0.0,86,0.00,BKN,,0.01,0.0,WeatherDisplay:10.37,2013-10-17 06:27:00,
2013-10-17 01:32:00,52.8,49.0,30.01,North,9,0.0,0.0,87,0.00,BKN,,0.01,0.0,WeatherDisplay:10.37,2013-10-17 06:32:00,
2013-10-17 01:37:00,52.5,49.1,30.01,North,9,0.0,1.0,88,0.00,BKN,,0.01,0.0,WeatherDisplay:10.37,2013-10-17 06:37:00,
2013-10-17 01:42:00,52.5,48.7,30.01,North,9,0.0,0.0,87,0.00,BKN,,0.01,0.0,WeatherDisplay:10.37,2013-10-17 06:42:00,
2013-10-17 01:47:00,52.4,48.9,30.02,North,9,0.0,0.0,88,0.00,BKN,,0.01,0.0,WeatherDisplay:10.37,2013-10-17 06:47:00,
2013-10-17 01:52:00,52.3,49.2,30.03,North,9,0.0,0.0,89,0.00,BKN,,0.01,0.0,WeatherDisplay:10.37,2013-10-17 06:52:00,
2013-10-17 01:57:00,52.3,49.5,30.02,North,9,0.0,0.0,90,0.00,BKN,,0.01,0.0,WeatherDisplay:10.37,2013-10-17 06:57:00,
2013-10-17 02:02:00,52.4,49.6,30.02,North,9,0.0,0.0,90,0.00,BKN,,0.01,0.0,WeatherDisplay:10.37,2013-10-17 07:02:00,
2013-10-17 02:07:00,52.4,49.6,30.02,North,9,0.0,0.0,90,0.00,BKN,,0.01,0.0,WeatherDisplay:10.37,2013-10-17 07:07:00,
2013-10-17 02:12:00,52.5,49.7,30.03,North,359,0.0,3.0,90,0.00,BKN,,0.01,0.0,WeatherDisplay:10.37,2013-10-17 07:12:00,
2013-10-17 02:17:00,52.6,50.0,30.02,NNW,344,1.0,3.0,91,0.00,BKN,,0.01,0.0,WeatherDisplay:10.37,2013-10-17 07:17:00,
2013-10-17 02:22:00,52.6,50.0,30.03,NNW,335,3.0,4.0,91,0.00,BKN,,0.01,0.0,WeatherDisplay:10.37,2013-10-17 07:22:00,
2013-10-17 02:27:00,52.4,49.6,30.02,NNW,334,0.0,3.0,90,0.00,BKN,,0.01,0.0,WeatherDisplay:10.37,2013-10-17 07:27:00,
2013-10-17 02:32:00,52.3,49.5,30.03,NNW,334,1.0,3.0,90,0.00,BKN,,0.01,0.0,WeatherDisplay:10.37,2013-10-17 07:32:00,
2013-10-17 02:37:00,52.3,49.8,30.03,NNW,334,0.0,1.0,91,0.00,BKN,,0.01,0.0,WeatherDisplay:10.37,2013-10-17 07:37:00,
2013-10-17 02:42:00,52.3,49.8,30.02,NNW,334,0.0,1.0,91,0.00,BKN,,0.01,0.0,WeatherDisplay:10.37,2013-10-17 07:42:00,
2013-10-17 02:48:00,52.4,49.8,30.02,NNW,334,0.0,3.0,91,0.00,BKN,,0.01,0.0,WeatherDisplay:10.37,2013-10-17 07:48:00,
2013-10-17 02:53:00,52.4,49.8,30.02,NNW,334,0.0,0.0,91,0.00,BKN,,0.01,0.0,WeatherDisplay:10.37,2013-10-17 07:53:00,
2013-10-17 02:58:00,52.3,49.8,30.02,NNW,334,0.0,0.0,91,0.00,BKN,,0.01,0.0,WeatherDisplay:10.37,2013-10-17 07:58:00,
2013-10-17 03:03:00,52.1,49.3,30.02,NNW,334,0.0,0.0,90,0.00,CLR,,0.01,0.0,WeatherDisplay:10.37,2013-10-17 08:03:00,
2013-10-17 03:08:00,51.8,49.3,30.02,NNW,334,0.0,0.0,91,0.00,CLR,,0.01,0.0,WeatherDisplay:10.37,2013-10-17 08:08:00,
2013-10-17 03:09:00,51.6,49.1,30.02,NNW,334,0.0,0.0,91,0.00,CLR,,0.01,0.0,WeatherDisplay:10.37,2013-10-17 08:09:00,
2013-10-17 03:14:00,51.4,48.9,30.01,NNW,334,0.0,0.0,91,0.00,CLR,,0.01,0.0,WeatherDisplay:10.37,2013-10-17 08:14:00,
2013-10-17 03:19:00,51.1,48.6,30.02,NNW,334,0.0,0.0,91,0.00,CLR,,0.01,0.0,WeatherDisplay:10.37,2013-10-17 08:19:00,
2013-10-17 03:24:00,50.8,48.3,30.02,NNW,334,0.0,0.0,91,0.00,CLR,,0.01,0.0,WeatherDisplay:10.37,2013-10-17 08:24:00,
2013-10-17 03:29:00,50.5,48.3,30.02,NNW,334,0.0,0.0,92,0.00,CLR,,0.01,0.0,WeatherDisplay:10.37,2013-10-17 08:29:00,
2013-10-17 03:34:00,50.4,48.2,30.02,NNW,334,0.1,1.2,92,0.00,CLR,,0.01,0.0,WeatherDisplay:10.37,2013-10-17 08:34:00,
2013-10-17 03:39:00,50.3,48.1,30.01,NNW,334,0.0,0.0,92,0.00,CLR,,0.01,0.0,WeatherDisplay:10.37,2013-10-17 08:39:00,
2013-10-17 03:44:00,50.0,47.8,30.01,NNW,334,0.0,0.0,92,0.00,CLR,,0.01,0.0,WeatherDisplay:10.37,2013-10-17 08:44:00,
2013-10-17 03:49:00,49.9,47.7,30.01,NNW,334,0.0,0.0,92,0.00,CLR,,0.01,0.0,WeatherDisplay:10.37,2013-10-17 08:49:00,
2013-10-17 03:54:00,49.7,47.5,30.02,NNW,334,0.0,0.0,92,0.00,CLR,,0.01,0.0,WeatherDisplay:10.37,2013-10-17 08:54:00,
2013-10-17 03:59:00,49.2,47.0,30.02,NNW,334,0.0,0.0,92,0.00,CLR,,0.01,0.0,WeatherDisplay:10.37,2013-10-17 08:59:00,
2013-10-17 04:04:00,48.9,46.7,30.02,NNW,334,0.0,0.0,92,0.00,CLR,,0.01,0.0,WeatherDisplay:10.37,2013-10-17 09:04:00,
2013-10-17 04:09:00,48.8,46.9,30.02,NNW,334,0.0,0.0,93,0.00,CLR,,0.01,0.0,WeatherDisplay:10.37,2013-10-17 09:09:00,
2013-10-17 04:14:00,48.6,46.4,30.02,NNW,334,0.0,0.0,92,0.00,CLR,,0.01,0.0,WeatherDisplay:10.37,2013-10-17 09:14:00,
2013-10-17 04:19:00,48.3,46.4,30.03,NNW,334,0.0,0.0,93,0.00,CLR,,0.01,0.0,WeatherDisplay:10.37,2013-10-17 09:19:00,
2013-10-17 04:24:00,48.1,46.2,30.03,NNW,334,0.0,0.0,93,0.00,CLR,,0.01,0.0,WeatherDisplay:10.37,2013-10-17 09:24:00,
2013-10-17 04:29:00,47.9,46.0,30.03,NNW,334,0.0,0.0,93,0.00,CLR,,0.01,0.0,WeatherDisplay:10.37,2013-10-17 09:29:00,
2013-10-17 04:34:00,48.0,46.1,30.03,NNW,334,0.0,0.0,93,0.00,CLR,,0.01,0.0,WeatherDisplay:10.37,2013-10-17 09:34:00,
2013-10-17 04:39:00,47.9,46.0,30.03,NNW,334,0.0,0.0,93,0.00,CLR,,0.01,0.0,WeatherDisplay:10.37,2013-10-17 09:39:00,
2013-10-17 04:44:00,47.9,46.0,30.03,NNW,334,0.0,0.0,93,0.00,CLR,,0.01,0.0,WeatherDisplay:10.37,2013-10-17 09:44:00,
2013-10-17 04:49:00,47.9,46.0,30.03,NNW,334,0.0,0.0,93,0.00,CLR,,0.01,0.0,WeatherDisplay:10.37,2013-10-17 09:49:00,
2013-10-17 04:54:00,47.5,45.6,30.03,NNW,334,0.0,0.0,93,0.00,CLR,,0.01,0.0,WeatherDisplay:10.37,2013-10-17 09:54:00,
2013-10-17 04:59:00,47.5,45.6,30.03,NNW,334,0.2,1.3,93,0.00,CLR,,0.01,0.0,WeatherDisplay:10.37,2013-10-17 09:59:00,
2013-10-17 05:04:00,47.5,45.6,30.03,NNW,334,0.4,2.3,93,0.00,CLR,,0.01,0.0,WeatherDisplay:10.37,2013-10-17 10:04:00,
2013-10-17 05:09:00,47.6,45.7,30.03,NNW,334,0.0,0.0,93,0.00,CLR,,0.01,0.0,WeatherDisplay:10.37,2013-10-17 10:09:00,
2013-10-17 05:14:00,47.6,45.7,30.03,NNW,334,0.0,0.0,93,0.00,CLR,,0.01,0.0,WeatherDisplay:10.37,2013-10-17 10:14:00,
2013-10-17 05:19:00,47.4,45.5,30.03,NNW,334,0.0,0.0,93,0.00,CLR,,0.01,0.0,WeatherDisplay:10.37,2013-10-17 10:19:00,
2013-10-17 05:24:00,47.5,45.9,30.03,NNW,334,0.0,0.0,94,0.00,CLR,,0.01,0.0,WeatherDisplay:10.37,2013-10-17 10:24:00,
2013-10-17 05:29:00,47.2,45.3,30.03,NNW,334,0.0,0.0,93,0.00,CLR,,0.01,0.0,WeatherDisplay:10.37,2013-10-17 10:29:00,
2013-10-17 05:34:00,46.9,45.0,30.03,NNW,334,0.0,0.0,93,0.00,CLR,,0.01,0.0,WeatherDisplay:10.37,2013-10-17 10:34:00,
2013-10-17 05:39:00,46.6,44.7,30.03,NNW,334,0.0,0.0,93,0.00,CLR,,0.01,0.0,WeatherDisplay:10.37,2013-10-17 10:39:00,
2013-10-17 05:44:00,46.6,44.7,30.03,NNW,334,0.0,0.0,93,0.00,CLR,,0.01,0.0,WeatherDisplay:10.37,2013-10-17 10:44:00,
2013-10-17 05:49:00,46.2,44.3,30.03,NNW,334,0.0,0.0,93,0.00,CLR,,0.01,0.0,WeatherDisplay:10.37,2013-10-17 10:49:00,
2013-10-17 05:54:00,46.1,44.2,30.03,NNW,334,0.0,0.0,93,0.00,CLR,,0.01,0.0,WeatherDisplay:10.37,2013-10-17 10:54:00,
2013-10-17 05:59:00,46.0,44.1,30.04,NNW,334,0.0,0.0,93,0.00,CLR,,0.01,0.0,WeatherDisplay:10.37,2013-10-17 10:59:00,
2013-10-17 06:04:00,45.8,43.9,30.04,NNW,334,0.0,0.0,93,0.00,CLR,,0.01,0.0,WeatherDisplay:10.37,2013-10-17 11:04:00,
2013-10-17 06:10:00,45.5,43.6,30.04,NNW,334,0.0,0.0,93,0.00,CLR,,0.01,0.0,WeatherDisplay:10.37,2013-10-17 11:10:00,
2013-10-17 06:15:00,45.5,43.6,30.04,NNW,334,0.0,0.0,93,0.00,CLR,,0.01,0.0,WeatherDisplay:10.37,2013-10-17 11:15:00,
2013-10-17 06:20:00,45.3,43.4,30.04,NNW,334,0.0,0.0,93,0.01,RA,,0.02,0.0,WeatherDisplay:10.37,2013-10-17 11:20:00,
2013-10-17 06:25:00,45.2,43.6,30.04,NNW,334,0.0,0.0,94,0.01,RA,,0.02,0.0,WeatherDisplay:10.37,2013-10-17 11:25:00,
2013-10-17 06:30:00,45.7,44.1,30.04,NNW,334,0.0,0.0,94,0.01,RA,,0.02,0.0,WeatherDisplay:10.37,2013-10-17 11:30:00,
2013-10-17 06:35:00,45.6,44.0,30.04,NNW,334,0.0,0.0,94,0.01,CLR,,0.02,0.0,WeatherDisplay:10.37,2013-10-17 11:35:00,
2013-10-17 06:40:00,45.4,43.8,30.05,NNW,334,0.0,0.0,94,0.01,CLR,,0.02,0.0,WeatherDisplay:10.37,2013-10-17 11:40:00,
2013-10-17 06:45:00,45.1,43.5,30.05,NNW,334,0.0,0.0,94,0.01,CLR,,0.02,0.0,WeatherDisplay:10.37,2013-10-17 11:45:00,
2013-10-17 06:50:00,44.8,42.9,30.05,NNW,334,0.0,0.0,93,0.01,CLR,,0.02,0.0,WeatherDisplay:10.37,2013-10-17 11:50:00,
2013-10-17 06:55:00,44.8,43.2,30.05,NNW,334,0.0,0.0,94,0.01,CLR,,0.02,0.0,WeatherDisplay:10.37,2013-10-17 11:55:00,
2013-10-17 07:00:00,44.9,43.3,30.05,NNW,334,0.0,0.0,94,0.01,CLR,,0.02,0.0,WeatherDisplay:10.37,2013-10-17 12:00:00,
2013-10-17 07:05:00,44.9,43.3,30.05,NNW,334,0.0,0.0,94,0.01,CLR,,0.02,0.0,WeatherDisplay:10.37,2013-10-17 12:05:00,
2013-10-17 07:10:00,44.7,43.1,30.05,NNW,334,0.0,0.0,94,0.01,CLR,,0.02,0.0,WeatherDisplay:10.37,2013-10-17 12:10:00,
2013-10-17 07:15:00,44.5,42.9,30.05,NNW,334,0.0,0.0,94,0.01,CLR,,0.02,0.0,WeatherDisplay:10.37,2013-10-17 12:15:00,
2013-10-17 07:20:00,44.5,42.9,30.05,NNW,334,0.0,0.0,94,0.00,CLR,,0.02,0.0,WeatherDisplay:10.37,2013-10-17 12:20:00,
2013-10-17 07:25:00,44.5,42.9,30.06,NNW,334,0.0,0.0,94,0.00,CLR,,0.02,5.0,WeatherDisplay:10.37,2013-10-17 12:25:00,
2013-10-17 07:30:00,44.5,42.9,30.06,NNW,334,0.0,0.0,94,0.00,CLR,,0.02,7.0,WeatherDisplay:10.37,2013-10-17 12:30:00,
2013-10-17 07:35:00,44.7,43.1,30.06,NNW,334,0.0,0.0,94,0.00,CLR,,0.02,11.0,WeatherDisplay:10.37,2013-10-17 12:35:00,
2013-10-17 07:40:00,44.4,42.8,30.06,NNW,334,0.0,0.0,94,0.00,CLR,,0.02,12.0,WeatherDisplay:10.37,2013-10-17 12:40:00,
2013-10-17 07:45:00,44.3,42.7,30.06,NNW,334,0.2,1.2,94,0.00,CLR,,0.02,16.0,WeatherDisplay:10.37,2013-10-17 12:45:00,
2013-10-17 07:50:00,44.6,43.0,30.06,NNW,334,0.0,0.0,94,0.00,CLR,,0.02,21.0,WeatherDisplay:10.37,2013-10-17 12:50:00,
2013-10-17 07:55:00,44.6,43.0,30.06,NNW,334,0.0,0.0,94,0.00,CLR,,0.02,40.0,WeatherDisplay:10.37,2013-10-17 12:55:00,
2013-10-17 08:00:00,44.7,43.1,30.06,NNW,334,0.0,0.0,94,0.00,CLR,,0.02,60.0,WeatherDisplay:10.37,2013-10-17 13:00:00,
2013-10-17 08:05:00,45.4,43.8,30.07,NNW,334,0.0,0.0,94,0.00,CLR,,0.02,74.0,WeatherDisplay:10.37,2013-10-17 13:05:00,
2013-10-17 08:10:00,45.6,44.0,30.07,NNW,334,0.0,0.0,94,0.00,CLR,,0.02,91.0,WeatherDisplay:10.37,2013-10-17 13:10:00,
2013-10-17 08:15:00,46.4,44.8,30.07,NNW,334,0.0,0.0,94,0.00,CLR,,0.02,105.0,WeatherDisplay:10.37,2013-10-17 13:15:00,
2013-10-17 08:20:00,46.6,45.0,30.07,NNW,334,0.0,0.0,94,0.00,CLR,,0.02,125.0,WeatherDisplay:10.37,2013-10-17 13:20:00,
2013-10-17 08:25:00,47.0,45.4,30.07,NNW,334,0.0,0.0,94,0.00,CLR,,0.02,144.0,WeatherDisplay:10.37,2013-10-17 13:25:00,
2013-10-17 08:30:00,47.7,46.1,30.07,NNW,334,0.0,0.0,94,0.00,CLR,,0.02,163.0,WeatherDisplay:10.37,2013-10-17 13:30:00,
2013-10-17 08:35:00,48.1,46.5,30.07,NNW,334,0.0,0.0,94,0.00,CLR,,0.02,183.0,WeatherDisplay:10.37,2013-10-17 13:35:00,
2013-10-17 08:40:00,48.5,46.9,30.07,West,279,0.0,0.0,94,0.00,CLR,,0.02,200.0,WeatherDisplay:10.37,2013-10-17 13:40:00,
2013-10-17 08:45:00,49.0,47.1,30.07,SW,232,1.5,2.3,93,0.00,CLR,,0.02,218.0,WeatherDisplay:10.37,2013-10-17 13:45:00,
2013-10-17 08:50:00,49.6,47.4,30.07,SW,232,0.1,1.2,92,0.00,CLR,,0.02,232.0,WeatherDisplay:10.37,2013-10-17 13:50:00,
2013-10-17 08:55:00,50.0,47.2,30.08,SSW,209,2.3,3.5,90,0.00,CLR,,0.02,250.0,WeatherDisplay:10.37,2013-10-17 13:55:00,
2013-10-17 09:00:00,50.0,46.9,30.08,SSW,200,2.2,2.6,89,0.00,CLR,,0.02,265.0,WeatherDisplay:10.37,2013-10-17 14:00:00,
2013-10-17 09:05:00,50.3,47.2,30.08,SW,215,4.0,5.8,89,0.00,CLR,,0.02,285.0,WeatherDisplay:10.37,2013-10-17 14:05:00,
2013-10-17 09:10:00,50.6,47.5,30.08,SW,217,2.5,3.5,89,0.00,CLR,,0.02,308.0,WeatherDisplay:10.37,2013-10-17 14:10:00,
2013-10-17 09:15:00,51.0,47.6,30.08,WSW,246,2.9,6.9,88,0.00,CLR,,0.02,320.0,WeatherDisplay:10.37,2013-10-17 14:15:00,
2013-10-17 09:20:00,51.6,47.9,30.08,West,272,2.6,6.9,87,0.00,CLR,,0.02,345.0,WeatherDisplay:10.37,2013-10-17 14:20:00,
2013-10-17 09:25:00,51.9,48.8,30.08,West,265,1.8,2.6,89,0.00,CLR,,0.02,357.0,WeatherDisplay:10.37,2013-10-17 14:25:00,
2013-10-17 09:30:00,51.7,47.6,30.08,SW,215,2.6,4.0,86,0.00,CLR,,0.02,387.0,WeatherDisplay:10.37,2013-10-17 14:30:00,
2013-10-17 09:35:00,51.2,46.8,30.08,SW,219,3.3,5.8,85,0.00,CLR,,0.02,369.0,WeatherDisplay:10.37,2013-10-17 14:35:00,
2013-10-17 09:40:00,51.6,47.9,30.08,South,173,3.7,5.8,87,0.00,CLR,,0.02,422.0,WeatherDisplay:10.37,2013-10-17 14:40:00,
2013-10-17 09:45:00,52.5,49.0,30.08,West,279,2.0,4.0,88,0.00,CLR,,0.02,334.0,WeatherDisplay:10.37,2013-10-17 14:45:00,
2013-10-17 09:50:00,52.5,48.1,30.09,SW,227,1.9,3.5,85,0.00,CLR,,0.02,88.0,WeatherDisplay:10.37,2013-10-17 14:50:00,
2013-10-17 09:55:00,52.2,47.5,30.09,SSW,211,5.9,8.1,84,0.00,CLR,,0.02,446.0,WeatherDisplay:10.37,2013-10-17 14:55:00,
2013-10-17 10:00:00,52.4,47.7,30.09,SSW,207,5.6,8.1,84,0.00,CLR,,0.02,461.0,WeatherDisplay:10.37,2013-10-17 15:00:00,
2013-10-17 10:05:00,52.9,48.2,30.09,SSW,211,5.8,9.2,84,0.00,CLR,,0.02,471.0,WeatherDisplay:10.37,2013-10-17 15:05:00,
2013-10-17 10:10:00,53.1,48.7,30.08,SSW,202,2.8,4.0,85,0.00,CLR,,0.02,480.0,WeatherDisplay:10.37,2013-10-17 15:10:00,
2013-10-17 10:15:00,53.7,49.0,30.08,SE,136,4.5,6.9,84,0.00,CLR,,0.02,496.0,WeatherDisplay:10.37,2013-10-17 15:15:00,
2013-10-17 10:20:00,53.9,49.2,30.08,SSW,210,0.2,2.3,84,0.00,CLR,,0.02,397.0,WeatherDisplay:10.37,2013-10-17 15:20:00,
2013-10-17 10:25:00,54.3,48.3,30.08,South,175,4.1,8.1,80,0.00,CLR,,0.02,515.0,WeatherDisplay:10.37,2013-10-17 15:25:00,
2013-10-17 10:30:00,54.7,48.6,30.08,SSW,194,5.8,9.2,80,0.00,CLR,,0.02,527.0,WeatherDisplay:10.37,2013-10-17 15:30:00,
2013-10-17 10:35:00,54.9,48.5,30.08,NW,315,6.3,6.9,79,0.00,CLR,,0.02,540.0,WeatherDisplay:10.37,2013-10-17 15:35:00,
2013-10-17 10:40:00,55.1,48.7,30.08,SW,223,3.7,5.8,79,0.00,CLR,,0.02,552.0,WeatherDisplay:10.37,2013-10-17 15:40:00,
2013-10-17 10:45:00,55.1,48.4,30.08,South,184,5.7,8.1,78,0.00,CLR,,0.02,561.0,WeatherDisplay:10.37,2013-10-17 15:45:00,
2013-10-17 10:50:00,55.8,49.4,30.08,SW,224,3.2,5.3,79,0.00,CLR,,0.02,573.0,WeatherDisplay:10.37,2013-10-17 15:50:00,
2013-10-17 10:55:00,56.5,49.4,30.08,WNW,288,1.1,2.6,77,0.00,CLR,,0.02,585.0,WeatherDisplay:10.37,2013-10-17 15:55:00,
2013-10-17 11:00:00,56.6,48.8,30.08,WSW,242,4.2,5.8,75,0.00,CLR,,0.02,592.0,WeatherDisplay:10.37,2013-10-17 16:00:00,
2013-10-17 11:05:00,56.4,48.9,30.08,SW,218,1.0,5.8,76,0.00,CLR,,0.02,610.0,WeatherDisplay:10.37,2013-10-17 16:05:00,
2013-10-17 11:10:00,56.8,47.9,30.08,WNW,284,3.9,5.8,72,0.00,CLR,,0.02,619.0,WeatherDisplay:10.37,2013-10-17 16:10:00,
2013-10-17 11:15:00,57.7,48.7,30.08,NW,305,3.4,3.5,72,0.00,CLR,,0.02,624.0,WeatherDisplay:10.37,2013-10-17 16:15:00,
2013-10-17 11:20:00,58.7,50.4,30.08,WSW,239,3.0,4.0,74,0.00,CLR,,0.02,636.0,WeatherDisplay:10.37,2013-10-17 16:20:00,
2013-10-17 11:25:00,57.7,48.4,30.08,South,180,2.8,6.9,71,0.00,CLR,,0.02,638.0,WeatherDisplay:10.37,2013-10-17 16:25:00,
2013-10-17 11:30:00,58.2,50.0,30.07,SSE,168,2.2,2.6,74,0.00,CLR,,0.02,654.0,WeatherDisplay:10.37,2013-10-17 16:30:00,
2013-10-17 11:35:00,57.9,49.3,30.07,SSW,194,1.8,5.3,73,0.00,CLR,,0.02,673.0,WeatherDisplay:10.37,2013-10-17 16:35:00,
2013-10-17 11:40:00,58.5,49.5,30.07,SSE,162,3.8,5.8,72,0.00,CLR,,0.02,668.0,WeatherDisplay:10.37,2013-10-17 16:40:00,
2013-10-17 11:45:00,58.5,48.4,30.07,South,172,3.8,6.9,69,0.00,CLR,,0.02,673.0,WeatherDisplay:10.37,2013-10-17 16:45:00,
2013-10-17 11:50:00,59.3,49.1,30.07,WSW,257,2.3,5.8,69,0.00,CLR,,0.02,698.0,WeatherDisplay:10.37,2013-10-17 16:50:00,
2013-10-17 11:55:00,59.4,47.6,30.07,WSW,256,4.8,6.9,65,0.00,CLR,,0.02,693.0,WeatherDisplay:10.37,2013-10-17 16:55:00,
2013-10-17 12:00:00,59.3,47.5,30.06,WNW,296,1.7,5.8,65,0.00,CLR,,0.02,689.0,WeatherDisplay:10.37,2013-10-17 17:00:00,
2013-10-17 12:05:00,60.8,51.0,30.06,NW,304,3.8,5.3,70,0.00,CLR,,0.02,696.0,WeatherDisplay:10.37,2013-10-17 17:05:00,
2013-10-17 12:10:00,60.3,49.3,30.06,SSW,206,5.0,6.9,67,0.00,CLR,,0.02,700.0,WeatherDisplay:10.37,2013-10-17 17:10:00,
2013-10-17 12:15:00,60.1,48.3,30.06,NNE,23,0.9,2.3,65,0.00,CLR,,0.02,707.0,WeatherDisplay:10.37,2013-10-17 17:15:00,
2013-10-17 12:20:00,60.6,48.8,30.06,SSW,213,5.8,9.2,65,0.00,CLR,,0.02,708.0,WeatherDisplay:10.37,2013-10-17 17:20:00,
2013-10-17 12:25:00,60.3,48.5,30.06,SSE,153,6.4,10.4,65,0.00,CLR,,0.02,714.0,WeatherDisplay:10.37,2013-10-17 17:25:00,
2013-10-17 12:30:00,60.7,48.4,30.05,SSW,211,6.2,9.2,64,0.00,CLR,,0.02,717.0,WeatherDisplay:10.37,2013-10-17 17:30:00,
2013-10-17 12:35:00,61.2,49.7,30.05,SW,232,3.4,6.6,66,0.00,CLR,,0.02,719.0,WeatherDisplay:10.37,2013-10-17 17:35:00,
2013-10-17 12:40:00,61.0,48.3,30.05,South,186,5.3,6.9,63,0.00,CLR,,0.02,721.0,WeatherDisplay:10.37,2013-10-17 17:40:00,
2013-10-17 12:45:00,61.0,48.7,30.05,WSW,243,6.6,9.2,64,0.00,CLR,,0.02,722.0,WeatherDisplay:10.37,2013-10-17 17:45:00,
2013-10-17 12:50:00,61.6,48.4,30.05,SW,215,5.8,8.1,62,0.00,CLR,,0.02,749.0,WeatherDisplay:10.37,2013-10-17 17:50:00,
2013-10-17 12:55:00,61.9,48.7,30.05,WSW,248,6.7,11.5,62,0.00,CLR,,0.02,731.0,WeatherDisplay:10.37,2013-10-17 17:55:00,
2013-10-17 13:00:00,62.8,50.0,30.04,SW,232,3.7,5.8,63,0.00,CLR,,0.02,728.0,WeatherDisplay:10.37,2013-10-17 18:00:00,
2013-10-17 13:05:00,62.3,49.5,30.04,WSW,249,8.6,8.6,63,0.00,CLR,,0.02,728.0,WeatherDisplay:10.37,2013-10-17 18:05:00,
2013-10-17 13:10:00,62.3,48.7,30.04,South,173,8.7,9.2,61,0.00,CLR,,0.02,721.0,WeatherDisplay:10.37,2013-10-17 18:10:00,
2013-10-17 13:15:00,63.0,48.9,30.04,South,191,5.6,9.2,60,0.00,CLR,,0.02,717.0,WeatherDisplay:10.37,2013-10-17 18:15:00,
2013-10-17 13:20:00,62.9,48.8,30.04,South,191,5.8,8.1,60,0.00,CLR,,0.02,719.0,WeatherDisplay:10.37,2013-10-17 18:20:00,
2013-10-17 13:25:00,62.7,49.1,30.03,South,175,1.3,9.2,61,0.00,CLR,,0.02,417.0,WeatherDisplay:10.37,2013-10-17 18:25:00,
2013-10-17 13:30:00,63.5,49.8,30.03,SW,226,4.9,9.2,61,0.00,CLR,,0.02,715.0,WeatherDisplay:10.37,2013-10-17 18:30:00,
2013-10-17 13:35:00,63.0,49.3,30.03,NNE,30,3.1,8.1,61,0.00,CLR,,0.02,712.0,WeatherDisplay:10.37,2013-10-17 18:35:00,
2013-10-17 13:40:00,63.3,48.3,30.03,SW,215,8.1,11.9,58,0.00,CLR,,0.02,714.0,WeatherDisplay:10.37,2013-10-17 18:40:00,
2013-10-17 13:45:00,62.7,47.7,30.03,SW,231,5.0,10.4,58,0.00,CLR,,0.02,710.0,WeatherDisplay:10.37,2013-10-17 18:45:00,
2013-10-17 13:50:00,62.9,48.3,30.02,SW,221,4.1,6.9,59,0.00,CLR,,0.02,394.0,WeatherDisplay:10.37,2013-10-17 18:50:00,
2013-10-17 13:55:00,63.5,49.8,30.02,South,184,3.4,6.9,61,0.00,CLR,,0.02,696.0,WeatherDisplay:10.37,2013-10-17 18:55:00,
2013-10-17 14:00:00,64.3,50.1,30.02,NW,313,1.8,5.8,60,0.00,CLR,,0.02,694.0,WeatherDisplay:10.37,2013-10-17 19:00:00,
2013-10-17 14:05:00,64.4,49.3,30.02,SSW,209,1.4,6.9,58,0.00,CLR,,0.02,687.0,WeatherDisplay:10.37,2013-10-17 19:05:00,
2013-10-17 14:10:00,64.1,49.5,30.02,SSW,202,5.3,5.8,59,0.00,CLR,,0.02,682.0,WeatherDisplay:10.37,2013-10-17 19:10:00,
2013-10-17 14:15:00,64.3,47.8,30.01,SW,215,8.3,11.5,55,0.00,CLR,,0.02,675.0,WeatherDisplay:10.37,2013-10-17 19:15:00,
2013-10-17 14:20:00,64.5,48.4,30.01,WSW,258,6.0,12.7,56,0.00,CLR,,0.02,670.0,WeatherDisplay:10.37,2013-10-17 19:20:00,
2013-10-17 14:25:00,64.1,47.6,30.01,SW,228,7.2,9.2,55,0.00,CLR,,0.02,663.0,WeatherDisplay:10.37,2013-10-17 19:25:00,
2013-10-17 14:30:00,64.5,48.0,30.01,SSW,200,3.7,8.1,55,0.00,CLR,,0.02,652.0,WeatherDisplay:10.37,2013-10-17 19:30:00,
2013-10-17 14:31:00,64.5,48.4,30.00,SW,220,4.9,5.8,56,0.00,CLR,,0.02,652.0,WeatherDisplay:10.37,2013-10-17 19:31:00,
2013-10-17 14:36:00,65.0,50.3,30.00,WSW,246,1.7,8.1,59,0.00,CLR,,0.02,647.0,WeatherDisplay:10.37,2013-10-17 19:36:00,
2013-10-17 14:41:00,65.9,50.2,30.00,SSW,196,1.3,4.0,57,0.00,CLR,,0.02,638.0,WeatherDisplay:10.37,2013-10-17 19:41:00,
2013-10-17 14:46:00,65.6,48.0,30.00,West,277,4.3,6.6,53,0.00,CLR,,0.02,631.0,WeatherDisplay:10.37,2013-10-17 19:46:00,
2013-10-17 14:51:00,65.8,47.7,30.00,WNW,292,7.0,7.0,52,0.00,CLR,,0.02,624.0,WeatherDisplay:10.37,2013-10-17 19:51:00,
2013-10-17 14:56:00,65.4,47.3,30.00,WNW,289,3.1,5.8,52,0.00,CLR,,0.02,613.0,WeatherDisplay:10.37,2013-10-17 19:56:00,
2013-10-17 15:01:00,65.4,47.3,29.99,SSW,202,4.0,5.8,52,0.00,CLR,,0.02,603.0,WeatherDisplay:10.37,2013-10-17 20:01:00,
2013-10-17 15:06:00,66.0,47.9,30.00,WNW,284,2.8,6.9,52,0.00,CLR,,0.02,592.0,WeatherDisplay:10.37,2013-10-17 20:06:00,
2013-10-17 15:11:00,66.3,48.7,30.00,SSW,207,3.0,4.0,53,0.00,CLR,,0.02,585.0,WeatherDisplay:10.37,2013-10-17 20:11:00,
2013-10-17 15:16:00,66.8,47.6,30.00,SW,233,3.3,6.6,50,0.00,CLR,,0.02,573.0,WeatherDisplay:10.37,2013-10-17 20:16:00,
2013-10-17 15:21:00,66.5,47.8,29.99,SW,215,1.0,4.0,51,0.00,CLR,,0.02,564.0,WeatherDisplay:10.37,2013-10-17 20:21:00,
2013-10-17 15:26:00,66.3,46.6,29.99,SW,223,4.1,4.1,49,0.00,CLR,,0.02,552.0,WeatherDisplay:10.37,2013-10-17 20:26:00,
2013-10-17 15:31:00,65.9,46.7,29.99,WSW,248,4.3,10.4,50,0.00,CLR,,0.02,541.0,WeatherDisplay:10.37,2013-10-17 20:31:00,
2013-10-17 15:36:00,66.0,47.3,29.99,SSW,200,4.5,6.9,51,0.00,CLR,,0.02,527.0,WeatherDisplay:10.37,2013-10-17 20:36:00,
2013-10-17 15:41:00,66.2,47.5,29.99,SSW,194,2.0,4.0,51,0.00,CLR,,0.02,515.0,WeatherDisplay:10.37,2013-10-17 20:41:00,
2013-10-17 15:46:00,66.2,46.5,29.99,WNW,300,3.9,5.8,49,0.00,CLR,,0.02,503.0,WeatherDisplay:10.37,2013-10-17 20:46:00,
2013-10-17 15:51:00,66.2,47.0,29.99,SSE,163,5.6,10.4,50,0.00,CLR,,0.02,489.0,WeatherDisplay:10.37,2013-10-17 20:51:00,
2013-10-17 15:56:00,66.1,46.9,29.99,South,186,7.9,7.9,50,0.00,CLR,,0.02,475.0,WeatherDisplay:10.37,2013-10-17 20:56:00,
2013-10-17 16:01:00,66.0,48.4,29.98,West,273,1.3,9.2,53,0.00,CLR,,0.02,464.0,WeatherDisplay:10.37,2013-10-17 21:01:00,
2013-10-17 16:06:00,66.3,47.6,29.98,SW,228,3.6,6.6,51,0.00,CLR,,0.02,446.0,WeatherDisplay:10.37,2013-10-17 21:06:00,
2013-10-17 16:11:00,66.5,47.8,29.98,SW,215,3.1,5.8,51,0.00,CLR,,0.02,431.0,WeatherDisplay:10.37,2013-10-17 21:11:00,
2013-10-17 16:16:00,66.4,46.7,29.98,SW,218,1.9,8.1,49,0.00,CLR,,0.02,417.0,WeatherDisplay:10.37,2013-10-17 21:16:00,
2013-10-17 16:21:00,66.1,46.4,29.98,South,175,4.7,8.1,49,0.00,CLR,,0.02,403.0,WeatherDisplay:10.37,2013-10-17 21:21:00,
2013-10-17 16:26:00,66.1,46.9,29.98,West,259,5.2,9.2,50,0.00,CLR,,0.02,385.0,WeatherDisplay:10.37,2013-10-17 21:26:00,
2013-10-17 16:31:00,66.3,48.1,29.98,WSW,240,2.0,8.1,52,0.00,CLR,,0.02,367.0,WeatherDisplay:10.37,2013-10-17 21:31:00,
2013-10-17 16:36:00,66.2,47.5,29.98,SW,215,3.3,8.1,51,0.00,CLR,,0.02,353.0,WeatherDisplay:10.37,2013-10-17 21:36:00,
2013-10-17 16:41:00,66.0,46.8,29.98,WNW,287,3.7,6.9,50,0.00,CLR,,0.02,336.0,WeatherDisplay:10.37,2013-10-17 21:41:00,
2013-10-17 16:46:00,65.9,47.3,29.98,SSW,210,1.4,2.3,51,0.00,CLR,,0.02,320.0,WeatherDisplay:10.37,2013-10-17 21:46:00,
2013-10-17 16:51:00,66.0,47.3,29.98,SW,214,3.0,3.0,51,0.00,CLR,,0.02,301.0,WeatherDisplay:10.37,2013-10-17 21:51:00,
2013-10-17 16:56:00,65.9,45.6,29.98,SW,214,5.0,6.6,48,0.00,CLR,,0.02,283.0,WeatherDisplay:10.37,2013-10-17 21:56:00,
2013-10-17 17:01:00,65.9,47.8,29.98,SSW,197,0.0,2.3,52,0.00,CLR,,0.02,264.0,WeatherDisplay:10.37,2013-10-17 22:01:00,
2013-10-17 17:06:00,65.9,46.7,29.98,WSW,244,1.7,2.6,50,0.00,CLR,,0.02,244.0,WeatherDisplay:10.37,2013-10-17 22:06:00,
2013-10-17 17:11:00,65.6,47.5,29.98,West,278,0.0,2.3,52,0.00,CLR,,0.02,139.0,WeatherDisplay:10.37,2013-10-17 22:11:00,
2013-10-17 17:16:00,65.3,46.2,29.98,SW,221,4.0,5.8,50,0.00,CLR,,0.02,46.0,WeatherDisplay:10.37,2013-10-17 22:16:00,
2013-10-17 17:21:00,65.2,46.6,29.98,SW,235,2.4,3.5,51,0.00,CLR,,0.02,49.0,WeatherDisplay:10.37,2013-10-17 22:21:00,
2013-10-17 17:26:00,65.0,46.4,29.98,SW,230,3.7,5.8,51,0.00,CLR,,0.02,60.0,WeatherDisplay:10.37,2013-10-17 22:26:00,
2013-10-17 17:31:00,64.9,47.4,29.98,West,259,0.1,1.2,53,0.00,CLR,,0.02,35.0,WeatherDisplay:10.37,2013-10-17 22:31:00,
2013-10-17 17:36:00,64.6,47.1,29.97,SW,222,0.0,0.0,53,0.00,CLR,,0.02,60.0,WeatherDisplay:10.37,2013-10-17 22:36:00,
2013-10-17 17:41:00,64.2,47.2,29.98,SW,222,0.8,1.3,54,0.00,CLR,,0.02,26.0,WeatherDisplay:10.37,2013-10-17 22:41:00,
2013-10-17 17:46:00,64.2,47.7,29.97,SSW,192,1.9,5.8,55,0.00,CLR,,0.02,25.0,WeatherDisplay:10.37,2013-10-17 22:46:00,
2013-10-17 17:51:00,64.0,47.0,29.98,SSW,212,1.5,5.8,54,0.00,CLR,,0.02,25.0,WeatherDisplay:10.37,2013-10-17 22:51:00,
2013-10-17 17:56:00,63.8,46.3,29.98,SW,228,3.4,3.5,53,0.00,CLR,,0.02,23.0,WeatherDisplay:10.37,2013-10-17 22:56:00,
2013-10-17 18:01:00,63.4,46.5,29.98,SSW,200,0.5,5.8,54,0.00,CLR,,0.02,30.0,WeatherDisplay:10.37,2013-10-17 23:01:00,
2013-10-17 18:06:00,63.0,46.6,29.98,SSW,200,0.0,0.0,55,0.00,CLR,,0.02,19.0,WeatherDisplay:10.37,2013-10-17 23:06:00,
2013-10-17 18:11:00,62.2,47.2,29.98,SSW,200,0.0,0.0,58,0.00,CLR,,0.02,18.0,WeatherDisplay:10.37,2013-10-17 23:11:00,
2013-10-17 18:16:00,61.1,48.0,29.98,SSW,200,0.0,0.0,62,0.00,CLR,,0.02,14.0,WeatherDisplay:10.37,2013-10-17 23:16:00,
2013-10-17 18:21:00,60.3,48.9,29.98,SSW,200,0.0,0.0,66,0.00,CLR,,0.02,12.0,WeatherDisplay:10.37,2013-10-17 23:21:00,
2013-10-17 18:26:00,59.4,48.0,29.98,SSW,200,0.0,0.0,66,0.00,CLR,,0.02,9.0,WeatherDisplay:10.37,2013-10-17 23:26:00,
2013-10-17 18:31:00,58.5,48.7,29.98,SSW,200,0.0,0.0,70,0.00,CLR,,0.02,7.0,WeatherDisplay:10.37,2013-10-17 23:31:00,
2013-10-17 18:36:00,57.8,49.2,29.98,SSW,200,0.0,0.0,73,0.00,CLR,,0.02,0.0,WeatherDisplay:10.37,2013-10-17 23:36:00,
2013-10-17 18:41:00,57.1,49.2,29.99,SSW,200,0.0,0.0,75,0.00,CLR,,0.02,0.0,WeatherDisplay:10.37,2013-10-17 23:41:00,
2013-10-17 18:46:00,56.5,49.0,29.99,SSW,200,0.0,0.0,76,0.00,CLR,,0.02,0.0,WeatherDisplay:10.37,2013-10-17 23:46:00,
2013-10-17 18:51:00,56.0,49.2,29.99,SSW,200,0.0,0.0,78,0.00,CLR,,0.02,0.0,WeatherDisplay:10.37,2013-10-17 23:51:00,
2013-10-17 18:56:00,55.7,49.6,29.99,SSW,200,0.0,0.0,80,0.00,CLR,,0.02,0.0,WeatherDisplay:10.37,2013-10-17 23:56:00,
2013-10-17 19:01:00,55.3,49.6,29.99,SSW,200,0.0,0.0,81,0.00,CLR,,0.02,0.0,WeatherDisplay:10.37,2013-10-18 00:01:00,
2013-10-17 19:06:00,54.8,49.4,29.99,SSW,200,0.0,0.0,82,0.00,CLR,,0.02,0.0,WeatherDisplay:10.37,2013-10-18 00:06:00,
2013-10-17 19:11:00,54.1,48.7,29.99,SSW,200,0.0,0.0,82,0.00,CLR,,0.02,0.0,WeatherDisplay:10.37,2013-10-18 00:11:00,
2013-10-17 19:16:00,53.7,49.0,29.99,SSW,200,0.0,0.0,84,0.00,CLR,,0.02,0.0,WeatherDisplay:10.37,2013-10-18 00:16:00,
2013-10-17 19:21:00,53.4,48.7,29.99,SSW,200,0.0,0.0,84,0.00,CLR,,0.02,0.0,WeatherDisplay:10.37,2013-10-18 00:21:00,
2013-10-17 19:26:00,52.9,48.2,29.99,SSW,200,0.0,0.0,84,0.00,CLR,,0.02,0.0,WeatherDisplay:10.37,2013-10-18 00:26:00,
2013-10-17 19:31:00,52.7,48.3,29.99,SSW,200,0.0,0.0,85,0.00,CLR,,0.02,0.0,WeatherDisplay:10.37,2013-10-18 00:31:00,
2013-10-17 19:36:00,52.7,48.3,30.00,SSW,200,0.0,0.0,85,0.00,CLR,,0.02,0.0,WeatherDisplay:10.37,2013-10-18 00:36:00,
2013-10-17 19:41:00,52.4,48.0,30.00,SSW,200,0.0,0.0,85,0.00,CLR,,0.02,0.0,WeatherDisplay:10.37,2013-10-18 00:41:00,
2013-10-17 19:46:00,52.2,48.1,30.00,SSW,200,0.0,1.3,86,0.00,CLR,,0.02,0.0,WeatherDisplay:10.37,2013-10-18 00:46:00,
2013-10-17 19:51:00,52.0,48.3,30.00,SSW,200,0.0,0.0,87,0.00,CLR,,0.02,0.0,WeatherDisplay:10.37,2013-10-18 00:51:00,
2013-10-17 19:56:00,51.7,48.0,30.00,WNW,296,0.0,2.3,87,0.00,CLR,,0.02,0.0,WeatherDisplay:10.37,2013-10-18 00:56:00,
2013-10-17 20:01:00,51.6,48.2,30.00,WNW,296,0.2,2.3,88,0.00,CLR,,0.02,0.0,WeatherDisplay:10.37,2013-10-18 01:01:00,
2013-10-17 20:06:00,51.5,48.1,30.00,WNW,296,0.0,0.0,88,0.00,CLR,,0.02,0.0,WeatherDisplay:10.37,2013-10-18 01:06:00,
2013-10-17 20:11:00,51.1,48.0,30.00,WNW,296,0.0,0.0,89,0.00,CLR,,0.02,0.0,WeatherDisplay:10.37,2013-10-18 01:11:00,
2013-10-17 20:16:00,50.8,47.7,30.00,WNW,296,0.0,0.0,89,0.00,CLR,,0.02,0.0,WeatherDisplay:10.37,2013-10-18 01:16:00,
2013-10-17 20:21:00,50.8,48.0,30.00,WNW,296,0.0,0.0,90,0.00,CLR,,0.02,0.0,WeatherDisplay:10.37,2013-10-18 01:21:00,
2013-10-17 20:26:00,50.7,47.9,30.00,WNW,296,0.0,0.0,90,0.00,CLR,,0.02,0.0,WeatherDisplay:10.37,2013-10-18 01:26:00,
2013-10-17 20:31:00,50.5,47.7,30.00,WNW,296,0.0,0.0,90,0.00,CLR,,0.02,0.0,WeatherDisplay:10.37,2013-10-18 01:31:00,
2013-10-17 20:36:00,50.1,47.3,30.00,WNW,296,0.0,0.0,90,0.00,CLR,,0.02,0.0,WeatherDisplay:10.37,2013-10-18 01:36:00,
2013-10-17 20:41:00,50.0,47.5,30.00,WNW,296,0.0,0.0,91,0.00,CLR,,0.02,0.0,WeatherDisplay:10.37,2013-10-18 01:41:00,
2013-10-17 20:46:00,49.5,46.7,30.00,WNW,296,0.0,0.0,90,0.00,CLR,,0.02,0.0,WeatherDisplay:10.37,2013-10-18 01:46:00,
2013-10-17 20:51:00,49.4,46.9,30.01,WNW,296,0.0,0.0,91,0.00,CLR,,0.02,0.0,WeatherDisplay:10.37,2013-10-18 01:51:00,
2013-10-17 20:57:00,49.2,46.7,30.01,WNW,296,0.0,0.0,91,0.00,CLR,,0.02,0.0,WeatherDisplay:10.37,2013-10-18 01:57:00,
2013-10-17 21:02:00,49.2,47.0,30.01,WNW,296,0.0,0.0,92,0.00,CLR,,0.02,0.0,WeatherDisplay:10.37,2013-10-18 02:02:00,
2013-10-17 21:07:00,49.1,46.9,30.01,WNW,296,0.0,0.0,92,0.00,CLR,,0.02,0.0,WeatherDisplay:10.37,2013-10-18 02:07:00,
2013-10-17 21:12:00,49.1,46.9,30.01,WNW,296,0.0,0.0,92,0.00,CLR,,0.02,0.0,WeatherDisplay:10.37,2013-10-18 02:12:00,
2013-10-17 21:17:00,49.0,46.8,30.01,WNW,296,0.0,0.0,92,0.00,CLR,,0.02,0.0,WeatherDisplay:10.37,2013-10-18 02:17:00,
2013-10-17 21:22:00,48.8,46.6,30.01,WNW,296,0.0,0.0,92,0.00,CLR,,0.02,0.0,WeatherDisplay:10.37,2013-10-18 02:22:00,
2013-10-17 21:27:00,48.6,46.4,30.01,WNW,296,0.0,0.0,92,0.00,CLR,,0.02,0.0,WeatherDisplay:10.37,2013-10-18 02:27:00,
2013-10-17 21:32:00,48.3,46.1,30.02,WNW,296,0.0,0.0,92,0.00,CLR,,0.02,0.0,WeatherDisplay:10.37,2013-10-18 02:32:00,
2013-10-17 21:37:00,48.3,46.1,30.02,WNW,296,0.0,0.0,92,0.00,CLR,,0.02,0.0,WeatherDisplay:10.37,2013-10-18 02:37:00,
2013-10-17 21:42:00,48.2,46.0,30.02,WNW,296,0.0,0.0,92,0.00,CLR,,0.02,0.0,WeatherDisplay:10.37,2013-10-18 02:42:00,
2013-10-17 21:47:00,48.1,45.9,30.02,WNW,296,0.0,0.0,92,0.00,CLR,,0.02,0.0,WeatherDisplay:10.37,2013-10-18 02:47:00,
2013-10-17 21:52:00,48.0,45.8,30.02,WNW,296,0.0,0.0,92,0.00,CLR,,0.02,0.0,WeatherDisplay:10.37,2013-10-18 02:52:00,
2013-10-17 21:57:00,47.9,45.7,30.02,WNW,296,0.0,0.0,92,0.00,CLR,,0.02,0.0,WeatherDisplay:10.37,2013-10-18 02:57:00,
2013-10-17 22:02:00,47.6,45.4,30.02,WNW,296,0.0,0.0,92,0.00,CLR,,0.02,0.0,WeatherDisplay:10.37,2013-10-18 03:02:00,
2013-10-17 22:07:00,47.5,45.3,30.02,WNW,296,0.0,0.0,92,0.00,CLR,,0.02,0.0,WeatherDisplay:10.37,2013-10-18 03:07:00,
2013-10-17 22:12:00,47.4,45.2,30.02,WNW,296,0.0,0.0,92,0.00,CLR,,0.02,0.0,WeatherDisplay:10.37,2013-10-18 03:12:00,
2013-10-17 22:17:00,47.1,44.9,30.02,WNW,296,0.0,0.0,92,0.00,CLR,,0.02,0.0,WeatherDisplay:10.37,2013-10-18 03:17:00,
2013-10-17 22:22:00,47.0,45.1,30.02,WNW,296,0.0,0.0,93,0.00,CLR,,0.02,0.0,WeatherDisplay:10.37,2013-10-18 03:22:00,
2013-10-17 22:27:00,47.4,45.5,30.02,WNW,296,0.0,0.0,93,0.00,CLR,,0.02,0.0,WeatherDisplay:10.37,2013-10-18 03:27:00,
2013-10-17 22:32:00,47.4,45.5,30.02,WNW,296,0.0,0.0,93,0.00,CLR,,0.02,0.0,WeatherDisplay:10.37,2013-10-18 03:32:00,
2013-10-17 22:37:00,47.4,45.5,30.02,WNW,296,0.0,0.0,93,0.00,CLR,,0.02,0.0,WeatherDisplay:10.37,2013-10-18 03:37:00,
2013-10-17 22:42:00,47.3,45.4,30.02,WNW,296,0.0,0.0,93,0.00,CLR,,0.02,0.0,WeatherDisplay:10.37,2013-10-18 03:42:00,
2013-10-17 22:47:00,46.9,45.0,30.03,WNW,296,0.0,0.0,93,0.00,CLR,,0.02,0.0,WeatherDisplay:10.37,2013-10-18 03:47:00,
2013-10-17 22:52:00,46.7,44.8,30.02,WNW,296,0.0,0.0,93,0.00,CLR,,0.02,0.0,WeatherDisplay:10.37,2013-10-18 03:52:00,
2013-10-17 22:57:00,46.6,44.7,30.02,WNW,296,0.0,0.0,93,0.00,CLR,,0.02,0.0,WeatherDisplay:10.37,2013-10-18 03:57:00,
2013-10-17 23:01:00,46.7,44.8,30.02,WNW,296,0.0,0.0,93,0.00,CLR,,0.02,0.0,WeatherDisplay:10.37,2013-10-18 04:01:00,
2013-10-17 23:02:00,46.7,44.8,30.02,WNW,296,0.0,0.0,93,0.00,CLR,,0.02,0.0,WeatherDisplay:10.37,2013-10-18 04:02:00,
2013-10-17 23:04:00,46.6,44.7,30.02,WNW,296,0.0,0.0,93,0.00,CLR,,0.02,0.0,WeatherDisplay:10.37,2013-10-18 04:04:00,
2013-10-17 23:09:00,46.4,44.5,30.02,WNW,296,0.0,0.0,93,0.00,CLR,,0.02,0.0,WeatherDisplay:10.37,2013-10-18 04:09:00,
2013-10-17 23:14:00,46.4,44.5,30.03,WNW,296,0.0,0.0,93,0.00,CLR,,0.02,0.0,WeatherDisplay:10.37,2013-10-18 04:14:00,
2013-10-17 23:19:00,46.1,44.2,30.03,WNW,296,0.0,0.0,93,0.00,CLR,,0.02,0.0,WeatherDisplay:10.37,2013-10-18 04:19:00,
2013-10-17 23:24:00,45.8,43.9,30.03,WNW,296,0.0,0.0,93,0.00,CLR,,0.02,0.0,WeatherDisplay:10.37,2013-10-18 04:24:00,
2013-10-17 23:29:00,45.9,44.0,30.03,WNW,296,0.0,0.0,93,0.00,CLR,,0.02,0.0,WeatherDisplay:10.37,2013-10-18 04:29:00,
2013-10-17 23:34:00,45.9,44.0,30.03,WNW,296,0.0,0.0,93,0.00,CLR,,0.02,0.0,WeatherDisplay:10.37,2013-10-18 04:34:00,
2013-10-17 23:39:00,45.8,43.9,30.03,WNW,296,0.0,0.0,93,0.00,CLR,,0.02,0.0,WeatherDisplay:10.37,2013-10-18 04:39:00,
2013-10-17 23:44:00,45.6,43.7,30.03,WNW,296,0.0,0.0,93,0.00,CLR,,0.02,0.0,WeatherDisplay:10.37,2013-10-18 04:44:00,
2013-10-17 23:49:00,45.7,43.8,30.03,WNW,296,0.0,0.0,93,0.00,CLR,,0.02,0.0,WeatherDisplay:10.37,2013-10-18 04:49:00,
2013-10-17 23:54:00,45.8,43.9,30.03,WNW,296,0.0,0.0,93,0.00,CLR,,0.02,0.0,WeatherDisplay:10.37,2013-10-18 04:54:00,
2013-10-17 23:59:00,45.5,43.6,30.03,WNW,296,0.0,0.0,93,0.00,CLR,,0.02,0.0,WeatherDisplay:10.37,2013-10-18 04:59:00,